Time;durP1;ratioP1;P1;durP2;ratioP2;P2;SDS_P1;SDS_P2;PMS_P1;PMS_P2;Temp;Humidity;BMP_temperature;BMP_pressure;BME280_temperature;BME280_humidity;BME280_pressure;Samples;Min_cycle;Max_cycle;Signal;HPM_P1;HPM_P2
2022/08/10 00:00:19;;;;;;;4.70;3.95;;;14.90;99.90;;;;;;4819805;29;20062;-67
2022/08/10 00:02:53;;;;;;;4.80;3.85;;;14.90;99.90;;;;;;4818022;29;20071;-67
2022/08/10 00:05:19;;;;;;;4.65;4.25;;;14.90;99.90;;;;;;4819555;29;20051;-68
2022/08/10 00:07:45;;;;;;;4.50;4.10;;;14.90;99.90;;;;;;4803307;29;20058;-68
2022/08/10 00:10:13;;;;;;;5.68;4.53;;;14.90;99.90;;;;;;4819886;29;20070;-68
2022/08/10 00:12:39;;;;;;;5.25;4.75;;;14.80;99.90;;;;;;4823000;29;20058;-68
2022/08/10 00:15:07;;;;;;;5.57;4.60;;;14.90;99.90;;;;;;4824474;29;20144;-68
2022/08/10 00:17:33;;;;;;;5.60;5.00;;;14.80;99.90;;;;;;4826070;29;20065;-68
2022/08/10 00:19:58;;;;;;;5.13;4.68;;;14.80;99.90;;;;;;4823713;29;20062;-68
2022/08/10 00:22:24;;;;;;;4.95;4.55;;;14.80;99.90;;;;;;4825869;29;20091;-67
2022/08/10 00:24:50;;;;;;;4.70;4.10;;;14.80;99.90;;;;;;4804894;29;20061;-67
2022/08/10 00:27:15;;;;;;;4.78;4.35;;;14.80;99.90;;;;;;4789677;29;20066;-68
2022/08/10 00:29:41;;;;;;;5.18;4.68;;;14.80;99.90;;;;;;4783880;29;20051;-68
2022/08/10 00:32:06;;;;;;;8.10;5.15;;;14.70;99.90;;;;;;4793177;29;20574;-68
2022/08/10 00:34:33;;;;;;;5.43;4.93;;;14.70;99.90;;;;;;4792314;29;20066;-67
2022/08/10 00:37:00;;;;;;;6.32;5.47;;;14.80;99.90;;;;;;4804402;29;20047;-68
2022/08/10 00:39:28;;;;;;;5.95;4.85;;;14.70;99.90;;;;;;4804197;29;20513;-67
2022/08/10 00:41:54;;;;;;;5.38;4.88;;;14.70;99.90;;;;;;4821450;29;20050;-68
2022/08/10 00:44:19;;;;;;;7.05;5.45;;;14.70;99.90;;;;;;4807366;29;20065;-68
2022/08/10 00:46:45;;;;;;;5.78;5.30;;;14.70;99.90;;;;;;4825129;29;20058;-67
2022/08/10 00:49:11;;;;;;;6.35;5.57;;;14.70;99.90;;;;;;4799236;29;20073;-68
2022/08/10 00:51:37;;;;;;;5.88;5.38;;;14.60;99.90;;;;;;4818607;29;20054;-69
2022/08/10 00:54:03;;;;;;;5.70;5.15;;;14.60;99.90;;;;;;4817030;29;20065;-67
2022/08/10 00:56:28;;;;;;;5.93;5.20;;;14.60;99.90;;;;;;4813190;29;20078;-68
2022/08/10 00:58:54;;;;;;;6.47;5.88;;;14.60;99.90;;;;;;4819044;29;20466;-68
2022/08/10 01:02:11;;;;;;;6.60;6.00;;;14.60;99.90;;;;;;4801891;29;20082;-68
2022/08/10 01:05:05;;;;;;;6.28;5.63;;;14.60;99.90;;;;;;4804606;29;20091;-68
2022/08/10 01:08:00;;;;;;;6.18;5.53;;;14.50;99.90;;;;;;4813424;29;20055;-67
2022/08/10 01:30:07;;;;;;;6.20;5.60;;;14.50;99.90;;;;;;4824446;29;20133;-67
2022/08/10 01:32:59;;;;;;;6.60;6.00;;;14.40;99.90;;;;;;4819982;29;20039;-68
2022/08/10 01:35:33;;;;;;;6.72;6.03;;;14.40;99.90;;;;;;4823768;29;20121;-68
2022/08/10 01:38:26;;;;;;;7.05;6.35;;;14.40;99.90;;;;;;4807106;29;20084;-68
2022/08/10 01:41:12;;;;;;;7.38;5.85;;;14.40;99.90;;;;;;4815293;29;20054;-68
2022/08/10 01:43:43;;;;;;;7.00;5.50;;;14.30;99.90;;;;;;4825002;29;20498;-68
2022/08/10 01:46:12;;;;;;;8.75;6.82;;;14.30;99.90;;;;;;4805664;29;20126;-68
2022/08/10 01:48:46;;;;;;;6.75;6.05;;;14.30;99.90;;;;;;4823807;29;20084;-68
2022/08/10 01:51:33;;;;;;;9.00;6.72;;;14.20;99.90;;;;;;4805003;29;20064;-68
2022/08/10 01:54:05;;;;;;;7.43;6.78;;;14.20;99.90;;;;;;4822773;29;20087;-68
2022/08/10 01:56:33;;;;;;;7.47;6.32;;;14.20;99.90;;;;;;4815896;29;20050;-68
2022/08/10 01:59:06;;;;;;;8.80;6.93;;;14.20;99.90;;;;;;4805382;29;20166;-68
2022/08/10 02:01:38;;;;;;;9.20;7.32;;;14.30;99.90;;;;;;4818206;29;20070;-68
2022/08/10 02:04:07;;;;;;;7.95;7.10;;;14.20;99.90;;;;;;4823759;29;20498;-68
2022/08/10 02:06:37;;;;;;;8.05;7.22;;;14.30;99.90;;;;;;4804174;29;20095;-68
2022/08/10 02:09:04;;;;;;;8.48;7.43;;;14.30;99.90;;;;;;4822618;29;20073;-67
2022/08/10 02:11:30;;;;;;;7.88;7.00;;;14.30;99.90;;;;;;4819797;29;20066;-67
2022/08/10 02:13:59;;;;;;;9.63;7.35;;;14.30;99.90;;;;;;4823798;29;20050;-68
2022/08/10 02:16:26;;;;;;;8.90;7.78;;;14.30;99.90;;;;;;4823007;29;20062;-67
2022/08/10 02:18:55;;;;;;;8.98;8.07;;;14.30;99.90;;;;;;4823533;29;20535;-68
2022/08/10 02:21:23;;;;;;;9.00;8.10;;;14.30;99.90;;;;;;4821987;29;20129;-68
2022/08/10 02:23:49;;;;;;;8.80;7.57;;;14.30;99.90;;;;;;4822193;29;20480;-67
2022/08/10 02:26:15;;;;;;;7.75;6.97;;;14.30;99.90;;;;;;4821956;29;20054;-67
2022/08/10 02:28:41;;;;;;;8.73;7.82;;;14.20;99.90;;;;;;4825166;29;20093;-67
2022/08/10 02:31:20;;;;;;;10.48;8.52;;;14.20;99.90;;;;;;4805053;29;20148;-67
2022/08/10 02:33:49;;;;;;;10.75;7.95;;;14.20;99.90;;;;;;4821940;29;20058;-67
2022/08/10 02:36:17;;;;;;;8.93;7.72;;;14.20;99.90;;;;;;4821242;29;20059;-67
2022/08/10 02:38:50;;;;;;;8.50;7.70;;;14.20;99.90;;;;;;4821428;29;20525;-67
2022/08/10 02:41:44;;;;;;;10.45;7.88;;;14.20;99.90;;;;;;4822717;29;20055;-68
2022/08/10 02:44:27;;;;;;;8.50;7.57;;;14.20;99.90;;;;;;4773219;29;20523;-67
2022/08/10 02:47:08;;;;;;;10.10;7.60;;;14.10;99.90;;;;;;4803590;29;20083;-68
2022/08/10 02:49:42;;;;;;;9.43;7.63;;;14.10;99.90;;;;;;4824738;29;20106;-67
2022/08/10 02:52:19;;;;;;;8.32;7.40;;;14.10;99.90;;;;;;4799547;29;20078;-67
2022/08/10 02:55:00;;;;;;;9.63;8.02;;;14.10;99.90;;;;;;4806142;29;20062;-68
2022/08/10 02:57:37;;;;;;;8.90;7.93;;;14.10;99.90;;;;;;4817985;29;20113;-67
2022/08/10 03:00:08;;;;;;;8.70;7.80;;;14.10;99.90;;;;;;4820993;29;20331;-68
2022/08/10 03:02:46;;;;;;;8.60;7.32;;;14.10;99.90;;;;;;4805237;29;20058;-68
2022/08/10 03:05:14;;;;;;;9.65;8.25;;;14.00;99.90;;;;;;4821762;29;20050;-68
2022/08/10 03:07:51;;;;;;;9.15;8.25;;;14.00;99.90;;;;;;4805465;29;20058;-67
2022/08/10 03:10:27;;;;;;;10.38;8.88;;;14.00;99.90;;;;;;4823227;29;20055;-67
2022/08/10 03:13:03;;;;;;;11.27;8.45;;;14.00;99.90;;;;;;4821321;29;20059;-68
2022/08/10 03:15:29;;;;;;;9.05;7.82;;;14.00;99.90;;;;;;4803598;29;20091;-68
2022/08/10 03:17:57;;;;;;;9.02;7.75;;;14.00;99.90;;;;;;4806970;29;20380;-67
2022/08/10 03:20:24;;;;;;;9.43;7.93;;;14.00;99.90;;;;;;4822451;29;20070;-67
2022/08/10 03:22:51;;;;;;;9.50;8.38;;;14.00;99.90;;;;;;4803765;29;20054;-67
2022/08/10 03:25:20;;;;;;;12.00;8.85;;;14.00;99.90;;;;;;4821139;29;20055;-68
2022/08/10 03:27:48;;;;;;;11.48;8.93;;;14.00;99.90;;;;;;4822006;29;20058;-67
2022/08/10 03:30:14;;;;;;;12.85;9.10;;;14.10;99.90;;;;;;4804376;29;20062;-67
2022/08/10 03:32:41;;;;;;;11.13;9.10;;;14.10;99.90;;;;;;4822966;29;20062;-67
2022/08/10 03:35:08;;;;;;;11.77;9.50;;;14.20;99.90;;;;;;4821439;29;20059;-68
2022/08/10 03:37:34;;;;;;;14.68;10.05;;;14.10;99.90;;;;;;4805453;29;20106;-67
2022/08/10 03:40:00;;;;;;;13.45;9.50;;;14.20;99.90;;;;;;4821369;29;20457;-67
2022/08/10 03:42:29;;;;;;;13.30;10.30;;;14.10;99.90;;;;;;4804818;29;20137;-67
2022/08/10 03:44:57;;;;;;;12.35;10.07;;;14.20;99.90;;;;;;4820801;29;20055;-66
2022/08/10 03:47:24;;;;;;;12.15;9.10;;;14.20;99.90;;;;;;4825242;29;20058;-67
2022/08/10 03:49:51;;;;;;;14.70;10.35;;;14.10;99.90;;;;;;4827070;29;20138;-67
2022/08/10 03:52:18;;;;;;;12.07;9.57;;;14.10;99.90;;;;;;4823530;29;20119;-68
2022/08/10 03:54:44;;;;;;;13.00;10.00;;;14.10;99.90;;;;;;4806386;29;20050;-67
2022/08/10 03:57:10;;;;;;;13.25;10.35;;;14.20;99.90;;;;;;4824050;29;20496;-67
2022/08/10 03:59:37;;;;;;;11.85;9.55;;;14.10;99.90;;;;;;4809156;29;20053;-67
2022/08/10 04:02:07;;;;;;;14.10;10.00;;;14.10;99.90;;;;;;4821255;29;20070;-67
2022/08/10 04:04:33;;;;;;;11.32;9.70;;;14.10;99.90;;;;;;4826082;29;20077;-68
2022/08/10 04:06:59;;;;;;;14.63;10.15;;;14.20;99.90;;;;;;4825798;29;20076;-67
2022/08/10 04:09:27;;;;;;;16.25;10.50;;;14.10;99.90;;;;;;4805383;29;20058;-67
2022/08/10 04:11:53;;;;;;;12.10;9.63;;;14.10;99.90;;;;;;4820345;29;20062;-68
2022/08/10 04:14:30;;;;;;;12.60;9.65;;;14.20;99.90;;;;;;4824736;29;20077;-67
2022/08/10 04:17:11;;;;;;;10.93;9.27;;;14.10;99.90;;;;;;4825743;29;20065;-67
2022/08/10 04:19:44;;;;;;;11.40;8.98;;;14.10;99.90;;;;;;4808574;29;20074;-68
2022/08/10 04:22:16;;;;;;;12.20;9.48;;;14.10;99.90;;;;;;4825124;29;20062;-68
2022/08/10 04:24:45;;;;;;;12.45;8.68;;;14.10;99.90;;;;;;4825340;29;20491;-67
2022/08/10 04:27:12;;;;;;;12.02;9.73;;;14.10;99.90;;;;;;4805674;29;20519;-67
2022/08/10 04:33:23;;;;;;;12.07;9.25;;;14.20;99.90;;;;;;4816089;29;20049;-67
2022/08/10 04:35:51;;;;;;;11.70;9.75;;;14.20;99.90;;;;;;4808668;29;20042;-67
2022/08/10 04:38:17;;;;;;;13.45;9.40;;;14.20;99.90;;;;;;4824864;29;20416;-67
2022/08/10 04:40:45;;;;;;;12.95;9.52;;;14.20;99.90;;;;;;4793933;29;20058;-67
2022/08/10 04:43:10;;;;;;;12.68;9.57;;;14.20;99.90;;;;;;4823477;29;20081;-68
2022/08/10 04:45:36;;;;;;;12.75;9.52;;;14.20;99.90;;;;;;4807233;29;20139;-67
2022/08/10 04:48:14;;;;;;;13.10;10.02;;;14.20;99.90;;;;;;4822495;29;20122;-67
2022/08/10 04:50:58;;;;;;;11.98;9.32;;;14.20;99.90;;;;;;4821943;29;20144;-68
2022/08/10 04:53:24;;;;;;;12.27;9.77;;;14.20;99.90;;;;;;4822995;29;20072;-67
2022/08/10 04:56:33;;;;;;;11.77;9.10;;;14.30;99.90;;;;;;4808404;29;20541;-67
2022/08/10 04:58:59;;;;;;;9.38;8.18;;;14.30;99.90;;;;;;4823577;29;20149;-68
2022/08/10 05:01:25;;;;;;;12.45;9.48;;;14.30;99.90;;;;;;4823452;29;20118;-67
2022/08/10 05:04:24;;;;;;;10.18;8.93;;;14.40;99.90;;;;;;4808254;29;20106;-67
2022/08/10 05:06:50;;;;;;;10.77;8.85;;;14.40;99.90;;;;;;4822454;29;20064;-68
2022/08/10 05:09:16;;;;;;;11.07;8.68;;;14.50;99.90;;;;;;4808511;29;20062;-68
2022/08/10 05:11:42;;;;;;;9.88;8.75;;;14.50;99.90;;;;;;4789819;29;20143;-68
2022/08/10 05:14:34;;;;;;;13.00;9.02;;;14.50;99.90;;;;;;4805618;29;20135;-67
2022/08/10 05:21:08;;;;;;;12.48;9.10;;;14.60;99.90;;;;;;4816079;29;20103;-68
2022/08/10 05:23:34;;;;;;;13.23;9.63;;;14.90;99.90;;;;;;4802895;29;20058;-67
2022/08/10 05:29:42;;;;;;;9.10;7.88;;;14.80;99.90;;;;;;4806771;29;20062;-68
2022/08/10 05:32:09;;;;;;;9.77;8.13;;;14.90;99.90;;;;;;4824567;29;20058;-67
2022/08/10 05:34:35;;;;;;;10.70;8.30;;;14.90;99.90;;;;;;4825114;29;20482;-67
2022/08/10 05:37:01;;;;;;;9.27;8.20;;;15.00;99.90;;;;;;4825077;29;20063;-67
2022/08/10 05:39:27;;;;;;;9.50;8.50;;;15.10;99.90;;;;;;4808935;29;20051;-67
2022/08/10 05:41:53;;;;;;;11.52;9.25;;;15.20;99.90;;;;;;4824547;29;20103;-67
2022/08/10 05:44:23;;;;;;;11.15;8.90;;;15.30;99.90;;;;;;4804882;29;20059;-68
2022/08/10 05:46:49;;;;;;;10.48;7.95;;;15.40;99.90;;;;;;4807069;29;20066;-67
2022/08/10 05:49:15;;;;;;;9.80;8.13;;;15.50;99.90;;;;;;4800746;29;20051;-67
2022/08/10 05:51:42;;;;;;;8.85;7.80;;;15.70;99.90;;;;;;4825096;29;20134;-67
2022/08/10 05:54:14;;;;;;;10.70;8.70;;;15.90;99.90;;;;;;4823965;29;20050;-68
2022/08/10 05:56:41;;;;;;;9.45;8.05;;;16.70;99.90;;;;;;4822627;29;20114;-67
2022/08/10 05:59:08;;;;;;;10.10;8.23;;;17.90;99.90;;;;;;4836446;29;20054;-69
2022/08/10 06:01:39;;;;;;;9.20;7.57;;;19.00;99.90;;;;;;4822745;29;20385;-69
2022/08/10 06:04:07;;;;;;;7.78;6.97;;;19.90;99.90;;;;;;4823196;29;20059;-69
2022/08/10 06:06:34;;;;;;;8.40;7.53;;;20.50;99.90;;;;;;4824427;29;20050;-68
2022/08/10 06:09:00;;;;;;;7.93;6.68;;;20.90;99.90;;;;;;4824738;29;20072;-68
2022/08/10 06:11:29;;;;;;;8.60;7.22;;;21.10;99.90;;;;;;4808793;29;20433;-68
2022/08/10 06:17:05;;;;;;;7.75;6.95;;;21.50;99.90;;;;;;4824386;29;20090;-69
2022/08/10 06:19:32;;;;;;;7.53;6.47;;;21.50;99.90;;;;;;4824277;29;20376;-69
2022/08/10 06:22:00;;;;;;;8.35;6.60;;;21.00;99.90;;;;;;4822895;29;20069;-68
2022/08/10 06:24:32;;;;;;;9.02;6.90;;;20.30;99.90;;;;;;4792703;29;20111;-69
2022/08/10 06:27:00;;;;;;;7.97;6.55;;;19.60;99.90;;;;;;4808317;29;20133;-68
2022/08/10 06:29:30;;;;;;;7.60;6.00;;;19.10;99.90;;;;;;4824304;29;20429;-69
2022/08/10 06:31:58;;;;;;;7.45;6.18;;;18.80;99.90;;;;;;4808090;29;20054;-68
2022/08/10 06:34:29;;;;;;;8.10;6.18;;;18.50;99.90;;;;;;4806532;29;20122;-69
2022/08/10 06:36:57;;;;;;;7.37;5.60;;;18.30;99.90;;;;;;4807938;29;20129;-69
2022/08/10 06:39:24;;;;;;;7.50;6.15;;;18.20;99.90;;;;;;4824362;29;20066;-65
2022/08/10 06:41:53;;;;;;;7.78;6.00;;;18.10;99.90;;;;;;4824103;29;20531;-69
2022/08/10 06:44:27;;;;;;;5.90;5.13;;;18.20;99.90;;;;;;4807730;29;20054;-68
2022/08/10 06:46:54;;;;;;;7.20;5.63;;;18.20;99.90;;;;;;4822537;29;20058;-69
2022/08/10 06:49:21;;;;;;;7.93;5.55;;;18.20;99.90;;;;;;4834268;29;20069;-68
2022/08/10 06:51:51;;;;;;;5.50;5.00;;;18.30;99.90;;;;;;4806184;29;20062;-69
2022/08/10 06:54:20;;;;;;;7.22;5.00;;;18.40;99.90;;;;;;4807950;29;20543;-68
2022/08/10 06:56:48;;;;;;;7.60;4.80;;;18.50;99.90;;;;;;4822639;29;20522;-69
2022/08/10 06:59:43;;;;;;;5.45;4.60;;;18.50;99.90;;;;;;4821823;29;20500;-68
2022/08/10 07:02:13;;;;;;;6.32;4.80;;;18.70;99.90;;;;;;4829979;29;20159;-68
2022/08/10 07:04:45;;;;;;;7.03;4.72;;;18.80;99.90;;;;;;4842655;29;20058;-68
2022/08/10 07:07:17;;;;;;;8.18;4.70;;;18.90;99.90;;;;;;4831559;29;20053;-69
2022/08/10 07:09:44;;;;;;;5.82;4.90;;;18.90;99.90;;;;;;4823948;29;20496;-68
2022/08/10 07:12:12;;;;;;;8.73;4.32;;;19.00;99.90;;;;;;4839289;29;20153;-69
2022/08/10 07:14:45;;;;;;;7.03;4.53;;;19.10;99.90;;;;;;4839979;29;20392;-69
2022/08/10 07:17:19;;;;;;;9.75;4.70;;;19.20;99.90;;;;;;4842203;29;20060;-68
2022/08/10 07:19:51;;;;;;;4.68;4.18;;;19.30;99.90;;;;;;4841747;29;20058;-69
2022/08/10 07:22:20;;;;;;;5.07;4.22;;;19.40;99.90;;;;;;4847020;29;20093;-68
2022/08/10 07:24:46;;;;;;;5.85;4.03;;;19.40;99.90;;;;;;4846438;29;20499;-69
2022/08/10 07:27:13;;;;;;;6.88;4.25;;;19.50;99.90;;;;;;4847158;29;20129;-69
2022/08/10 07:29:43;;;;;;;4.05;3.75;;;19.70;99.90;;;;;;4848358;29;20061;-68
2022/08/10 07:32:11;;;;;;;6.32;3.80;;;19.80;99.90;;;;;;4848315;29;20054;-69
2022/08/10 07:34:38;;;;;;;4.03;3.60;;;20.00;99.90;;;;;;4847923;29;20500;-69
2022/08/10 07:37:07;;;;;;;9.52;4.22;;;20.10;99.90;;;;;;4847374;29;20045;-68
2022/08/10 07:39:36;;;;;;;4.75;3.28;;;20.10;99.90;;;;;;4846902;29;20076;-68
2022/08/10 07:42:04;;;;;;;6.72;4.10;;;20.30;99.90;;;;;;4847735;29;20141;-68
2022/08/10 07:44:31;;;;;;;4.90;3.67;;;20.40;99.90;;;;;;4846903;29;20507;-68
2022/08/10 07:47:02;;;;;;;4.80;3.15;;;20.60;99.90;;;;;;4846429;29;20069;-69
2022/08/10 07:49:34;;;;;;;7.10;3.85;;;20.60;99.90;;;;;;4848197;29;20482;-69
2022/08/10 07:52:04;;;;;;;4.10;2.97;;;20.80;99.90;;;;;;4847556;29;20094;-68
2022/08/10 07:54:33;;;;;;;4.13;3.30;;;20.90;99.90;;;;;;4847752;29;20060;-70
2022/08/10 07:57:04;;;;;;;4.72;3.30;;;20.90;99.90;;;;;;4846338;29;20093;-69
2022/08/10 07:59:55;;;;;;;4.72;3.53;;;20.90;99.90;;;;;;4846492;29;20178;-68
2022/08/10 08:02:36;;;;;;;5.15;3.65;;;21.00;99.90;;;;;;4848101;29;20110;-69
2022/08/10 08:05:06;;;;;;;5.30;3.38;;;21.00;99.90;;;;;;4848031;29;20448;-69
2022/08/10 08:07:35;;;;;;;5.80;3.70;;;21.20;99.90;;;;;;4846061;29;20109;-67
2022/08/10 08:10:02;;;;;;;5.05;3.15;;;21.40;99.90;;;;;;4846764;29;20050;-68
2022/08/10 08:12:29;;;;;;;3.72;3.20;;;21.40;99.90;;;;;;4846282;29;20058;-68
2022/08/10 08:14:58;;;;;;;4.15;3.03;;;21.40;99.90;;;;;;4847193;29;20054;-69
2022/08/10 08:17:25;;;;;;;5.65;3.22;;;21.40;99.90;;;;;;4846172;29;20149;-68
2022/08/10 08:19:56;;;;;;;4.43;2.65;;;21.50;99.90;;;;;;4846735;29;20058;-68
2022/08/10 08:22:23;;;;;;;2.83;2.53;;;21.60;99.90;;;;;;4847060;29;20069;-68
2022/08/10 08:24:50;;;;;;;5.15;3.00;;;21.80;99.90;;;;;;4846706;29;20058;-68
2022/08/10 08:27:18;;;;;;;3.30;2.50;;;21.80;99.90;;;;;;4846374;29;20526;-68
2022/08/10 08:29:46;;;;;;;4.00;2.85;;;21.90;99.90;;;;;;4846790;29;20058;-68
2022/08/10 08:32:23;;;;;;;6.30;3.47;;;22.00;99.90;;;;;;4830028;29;20129;-69
2022/08/10 08:34:54;;;;;;;4.05;2.90;;;22.20;99.90;;;;;;4844098;29;20066;-69
2022/08/10 08:37:22;;;;;;;2.78;2.45;;;22.20;99.90;;;;;;4843865;29;20407;-68
2022/08/10 08:39:48;;;;;;;4.03;2.90;;;22.30;99.90;;;;;;4842641;29;20090;-68
2022/08/10 08:43:05;;;;;;;4.25;2.75;;;22.40;99.90;;;;;;4843512;29;20086;-68
2022/08/10 08:45:36;;;;;;;4.90;2.75;;;22.60;99.90;;;;;;4803283;29;20414;-68
2022/08/10 08:48:35;;;;;;;6.18;3.17;;;22.60;99.90;;;;;;4844673;29;20157;-68
2022/08/10 08:51:32;;;;;;;4.68;3.63;;;22.80;99.90;;;;;;4842591;29;20062;-68
2022/08/10 08:54:25;;;;;;;4.45;3.20;;;22.90;99.90;;;;;;4843970;29;20498;-69
2022/08/10 08:57:21;;;;;;;5.70;3.40;;;23.10;99.90;;;;;;4844013;29;20053;-68
2022/08/10 09:00:25;;;;;;;7.30;3.15;;;23.40;99.90;;;;;;4843370;29;20061;-69
2022/08/10 09:03:00;;;;;;;4.97;3.45;;;23.50;99.90;;;;;;4772487;30;20493;-68
2022/08/10 09:05:46;;;;;;;6.35;3.60;;;23.50;99.90;;;;;;4833702;29;20061;-70
2022/08/10 09:08:48;;;;;;;5.53;3.00;;;23.40;99.90;;;;;;4844337;29;20054;-68
2022/08/10 09:11:31;;;;;;;5.95;2.97;;;23.50;99.90;;;;;;4842485;29;20181;-68
2022/08/10 09:14:10;;;;;;;3.78;3.33;;;23.60;99.90;;;;;;4842671;29;20091;-69
2022/08/10 09:17:00;;;;;;;3.78;3.40;;;23.60;99.90;;;;;;4843802;29;20114;-68
2022/08/10 09:19:47;;;;;;;6.82;2.95;;;23.50;99.90;;;;;;4844124;29;20129;-69
2022/08/10 09:22:20;;;;;;;5.40;2.85;;;23.70;99.90;;;;;;4842311;29;20069;-68
2022/08/10 09:25:07;;;;;;;3.97;2.15;;;23.90;99.90;;;;;;4853156;29;20064;-69
2022/08/10 09:27:44;;;;;;;3.65;2.22;;;23.90;99.90;;;;;;4861346;29;20069;-68
2022/08/10 09:30:15;;;;;;;3.67;2.20;;;24.00;99.90;;;;;;4862529;29;20072;-69
2022/08/10 09:32:50;;;;;;;3.00;2.30;;;24.00;99.90;;;;;;4862156;29;20561;-68
2022/08/10 09:35:50;;;;;;;4.70;1.73;;;24.40;99.90;;;;;;4861830;29;20483;-68
2022/08/10 09:38:53;;;;;;;3.53;1.90;;;24.60;99.90;;;;;;4862332;29;20479;-68
2022/08/10 09:41:44;;;;;;;3.45;1.75;;;24.50;99.90;;;;;;4845540;29;20137;-69
2022/08/10 09:44:38;;;;;;;5.88;2.22;;;24.50;99.90;;;;;;4845003;29;20088;-69
2022/08/10 09:47:06;;;;;;;5.03;1.83;;;24.70;99.90;;;;;;4845252;29;20058;-68
2022/08/10 09:49:59;;;;;;;3.25;1.70;;;24.70;99.90;;;;;;4861740;29;20594;-69
2022/08/10 09:52:47;;;;;;;2.90;1.80;;;24.80;99.90;;;;;;4861182;29;20147;-69
2022/08/10 09:55:51;;;;;;;2.13;1.45;;;24.90;99.90;;;;;;4845516;29;20093;-69
2022/08/10 09:58:35;;;;;;;2.20;1.70;;;24.90;99.90;;;;;;4842168;29;20559;-69
2022/08/10 10:01:23;;;;;;;1.58;1.48;;;24.90;98.10;;;;;;4842997;29;20077;-69
2022/08/10 10:04:08;;;;;;;2.92;1.58;;;25.00;97.00;;;;;;4826546;29;20062;-69
2022/08/10 10:06:53;;;;;;;2.17;1.42;;;25.10;98.30;;;;;;4842725;29;20109;-69
2022/08/10 10:09:41;;;;;;;3.75;1.50;;;25.10;95.10;;;;;;4841909;29;20070;-68
2022/08/10 10:12:24;;;;;;;3.67;1.75;;;25.40;92.50;;;;;;4842579;29;20492;-68
2022/08/10 10:15:20;;;;;;;2.53;1.80;;;25.40;93.70;;;;;;4855100;29;20061;-69
2022/08/10 10:18:01;;;;;;;4.47;2.38;;;25.50;90.30;;;;;;4860134;29;20070;-68
2022/08/10 10:21:01;;;;;;;3.40;1.65;;;25.40;89.90;;;;;;4860164;29;20468;-69
2022/08/10 10:23:45;;;;;;;3.45;1.42;;;25.50;91.60;;;;;;4844809;29;20054;-68
2022/08/10 10:26:19;;;;;;;3.40;1.48;;;25.70;91.80;;;;;;4861358;29;20348;-69
2022/08/10 10:29:04;;;;;;;1.77;1.30;;;25.70;81.80;;;;;;4860741;29;20495;-68
2022/08/10 10:31:53;;;;;;;1.40;1.30;;;25.60;82.40;;;;;;4843530;29;20479;-69
2022/08/10 10:34:59;;;;;;;2.88;2.03;;;25.60;84.20;;;;;;4825593;29;20054;-69
2022/08/10 10:37:25;;;;;;;2.17;1.48;;;25.80;81.80;;;;;;4825952;29;20057;-68
2022/08/10 10:39:54;;;;;;;3.08;1.50;;;26.00;84.00;;;;;;4850089;29;20053;-68
2022/08/10 10:42:45;;;;;;;3.65;1.80;;;26.10;84.20;;;;;;4860987;29;20064;-68
2022/08/10 10:45:30;;;;;;;1.55;1.45;;;26.20;81.20;;;;;;4845001;29;20060;-68
2022/08/10 10:48:31;;;;;;;1.33;1.20;;;26.30;77.00;;;;;;4833202;29;20063;-68
2022/08/10 10:51:05;;;;;;;3.40;1.30;;;26.30;70.10;;;;;;4826422;29;20073;-68
2022/08/10 10:53:43;;;;;;;2.63;1.58;;;26.40;75.50;;;;;;4860909;29;20438;-68
2022/08/10 10:56:50;;;;;;;2.03;1.40;;;26.40;73.40;;;;;;4841502;29;20061;-68
2022/08/10 10:59:36;;;;;;;3.00;1.35;;;26.50;69.60;;;;;;4858021;29;20061;-68
2022/08/10 11:02:31;;;;;;;1.63;1.17;;;26.50;71.90;;;;;;4844259;29;20111;-68
2022/08/10 11:05:33;;;;;;;1.55;1.20;;;26.60;70.90;;;;;;4860658;29;20046;-68
2022/08/10 11:08:08;;;;;;;3.50;1.00;;;26.60;69.10;;;;;;4843649;29;20058;-68
2022/08/10 11:10:45;;;;;;;2.90;1.30;;;26.60;68.80;;;;;;4842409;29;20057;-68
2022/08/10 11:13:22;;;;;;;1.50;1.10;;;26.70;68.50;;;;;;4860101;29;20058;-69
2022/08/10 11:16:32;;;;;;;4.45;1.13;;;26.60;67.30;;;;;;4843613;29;20085;-69
2022/08/10 11:19:20;;;;;;;1.95;1.17;;;26.50;67.40;;;;;;4806755;29;20062;-69
2022/08/10 11:22:02;;;;;;;1.58;1.02;;;26.50;66.60;;;;;;4821054;29;20058;-68
2022/08/10 11:25:05;;;;;;;1.17;1.08;;;26.40;64.40;;;;;;4849485;29;20092;-68
2022/08/10 11:27:47;;;;;;;5.18;1.30;;;26.50;66.30;;;;;;4858383;29;20073;-69
2022/08/10 11:30:36;;;;;;;1.70;1.30;;;26.70;66.20;;;;;;4849932;29;20477;-68
2022/08/10 11:33:36;;;;;;;2.25;0.90;;;26.80;64.60;;;;;;4822316;29;20129;-67
2022/08/10 11:43:20;;;;;;;5.60;0.90;;;26.80;62.90;;;;;;4788006;29;20353;-69
2022/08/10 11:45:56;;;;;;;2.63;1.27;;;26.80;61.90;;;;;;4788013;29;20054;-69
2022/08/10 11:48:59;;;;;;;2.13;1.17;;;26.80;63.20;;;;;;4801714;29;20120;-68
2022/08/10 11:55:19;;;;;;;1.00;0.98;;;27.00;60.80;;;;;;4803413;29;20073;-68
2022/08/10 11:57:47;;;;;;;1.83;0.90;;;27.00;61.90;;;;;;4802150;29;20130;-69
2022/08/10 12:04:26;;;;;;;3.30;1.20;;;27.00;61.10;;;;;;4787678;29;20080;-68
2022/08/10 12:46:13;;;;;;;1.35;1.25;;;27.60;57.50;;;;;;4804358;29;20054;-69
2022/08/10 13:05:20;;;;;;;1.80;1.00;;;27.50;58.60;;;;;;4769252;30;20069;-68
2022/08/10 13:11:48;;;;;;;1.13;0.95;;;27.80;57.50;;;;;;4769486;30;20476;-67
2022/08/10 13:14:42;;;;;;;2.50;1.02;;;27.70;57.90;;;;;;4755825;29;20367;-67
2022/08/10 13:17:15;;;;;;;2.10;1.20;;;27.80;58.60;;;;;;4782938;29;20552;-67
2022/08/10 13:19:44;;;;;;;1.33;1.10;;;27.90;56.70;;;;;;4784390;29;20449;-67
2022/08/10 13:22:15;;;;;;;2.08;1.23;;;28.00;55.40;;;;;;4832466;29;20062;-67
2022/08/10 13:24:52;;;;;;;1.55;1.23;;;28.00;54.50;;;;;;4843689;29;20065;-68
2022/08/10 13:27:26;;;;;;;2.03;0.98;;;27.90;54.00;;;;;;4843767;29;20484;-67
2022/08/10 13:30:05;;;;;;;1.92;1.00;;;27.90;54.80;;;;;;4850986;29;20050;-67
2022/08/10 13:32:37;;;;;;;2.53;1.20;;;27.90;53.10;;;;;;4858661;29;20049;-68
2022/08/10 13:38:07;;;;;;;1.23;0.80;;;28.00;54.00;;;;;;4860437;29;20053;-67
2022/08/10 13:40:34;;;;;;;1.10;1.00;;;27.90;54.60;;;;;;4862477;29;20064;-67
2022/08/10 13:43:37;;;;;;;1.77;0.95;;;27.90;53.90;;;;;;4845194;29;20073;-67
2022/08/10 13:46:12;;;;;;;1.10;0.90;;;28.00;53.90;;;;;;4806917;29;20055;-67
2022/08/10 13:48:38;;;;;;;1.27;0.93;;;27.90;53.30;;;;;;4846667;29;20065;-66
2022/08/10 13:51:06;;;;;;;1.60;0.93;;;27.90;53.60;;;;;;4844260;29;20497;-66
2022/08/10 13:53:33;;;;;;;1.67;1.00;;;27.90;53.80;;;;;;4842708;29;20081;-66
2022/08/10 13:56:00;;;;;;;2.72;0.90;;;28.00;53.80;;;;;;4845245;29;20167;-67
2022/08/10 13:58:30;;;;;;;2.75;1.00;;;28.10;53.50;;;;;;4857568;29;20217;-67
2022/08/10 14:00:59;;;;;;;0.80;0.80;;;28.10;53.20;;;;;;4858592;29;20065;-66
2022/08/10 14:03:25;;;;;;;2.55;0.90;;;28.10;53.50;;;;;;4859319;29;20060;-66
2022/08/10 14:05:53;;;;;;;3.22;0.90;;;28.10;53.50;;;;;;4860815;29;20487;-67
2022/08/10 14:08:29;;;;;;;1.63;1.17;;;28.10;53.20;;;;;;4859320;29;20122;-67
2022/08/10 14:11:00;;;;;;;1.02;0.93;;;28.10;53.30;;;;;;4844974;29;20098;-67
2022/08/10 14:16:30;;;;;;;1.55;1.00;;;28.10;52.80;;;;;;4832044;29;20069;-67
2022/08/10 14:19:00;;;;;;;1.73;0.93;;;28.10;51.90;;;;;;4860457;29;20436;-67
2022/08/10 14:21:36;;;;;;;1.25;1.10;;;28.00;52.10;;;;;;4828861;29;20045;-67
2022/08/10 14:24:02;;;;;;;1.15;0.80;;;28.10;52.50;;;;;;4844975;29;20060;-67
2022/08/10 14:26:29;;;;;;;1.20;1.10;;;28.20;52.30;;;;;;4844420;29;20045;-67
2022/08/10 14:29:14;;;;;;;2.97;1.08;;;28.20;52.30;;;;;;4843666;29;20422;-68
2022/08/10 14:31:43;;;;;;;2.58;0.90;;;28.20;52.00;;;;;;4844219;29;20061;-67
2022/08/10 14:34:12;;;;;;;2.95;1.50;;;28.10;52.20;;;;;;4860030;29;20072;-67
2022/08/10 14:36:54;;;;;;;1.58;0.90;;;28.10;52.80;;;;;;4859720;29;20057;-67
2022/08/10 14:39:35;;;;;;;2.33;0.90;;;28.10;52.70;;;;;;4860427;29;20061;-67
2022/08/10 14:42:06;;;;;;;4.10;1.27;;;28.10;52.80;;;;;;4844402;29;20057;-67
2022/08/10 14:44:48;;;;;;;1.00;1.00;;;28.00;53.10;;;;;;4860974;29;20082;-67
2022/08/10 14:47:19;;;;;;;2.50;1.45;;;28.10;53.50;;;;;;4844176;29;20049;-67
2022/08/10 14:49:46;;;;;;;1.50;1.15;;;28.10;53.20;;;;;;4844342;29;20503;-67
2022/08/10 14:52:14;;;;;;;2.42;1.02;;;28.10;53.40;;;;;;4858282;29;20136;-67
2022/08/10 14:54:51;;;;;;;2.67;1.00;;;28.10;53.30;;;;;;4858251;29;20057;-67
2022/08/10 14:57:18;;;;;;;4.20;1.10;;;28.00;53.20;;;;;;4860079;29;20049;-67
2022/08/10 14:59:46;;;;;;;1.38;1.00;;;27.90;53.30;;;;;;4861216;29;20061;-67
2022/08/10 15:02:17;;;;;;;2.40;1.02;;;28.00;53.40;;;;;;4859986;29;20455;-67
2022/08/10 15:04:44;;;;;;;2.05;1.00;;;27.90;53.30;;;;;;4842742;29;20064;-67
2022/08/10 15:07:29;;;;;;;2.13;1.15;;;28.00;53.50;;;;;;4859177;29;20463;-66
2022/08/10 15:09:55;;;;;;;1.40;1.00;;;27.80;53.50;;;;;;4860778;29;20067;-67
2022/08/10 15:12:23;;;;;;;1.30;1.20;;;27.80;54.70;;;;;;4860106;29;20093;-66
2022/08/10 15:14:52;;;;;;;5.47;1.33;;;27.60;54.20;;;;;;4860606;29;20061;-67
2022/08/10 15:17:27;;;;;;;1.20;1.00;;;27.80;54.60;;;;;;4860179;29;20096;-67